Time;durP1;ratioP1;P1;durP2;ratioP2;P2;SDS_P1;SDS_P2;PMS_P1;PMS_P2;Temp;Humidity;BMP_temperature;BMP_pressure;BME280_temperature;BME280_humidity;BME280_pressure;Samples;Min_cycle;Max_cycle;Signal;HPM_P1;HPM_P2
2024/04/03 00:03:52;;;;;;;1.58;1.13;;;;;;;11.32;55.84;99249.00;10433245;28;20400;-59
2024/04/03 00:08:53;;;;;;;1.35;0.68;;;;;;;11.24;56.45;99247.78;10434041;28;20060;-59
2024/04/03 00:13:54;;;;;;;6.10;1.30;;;;;;;11.26;56.39;99235.41;10433444;28;20494;-59
2024/04/03 00:18:55;;;;;;;2.35;1.38;;;;;;;11.26;56.54;99235.41;10433580;28;20053;-59
2024/04/03 00:23:56;;;;;;;0.75;0.60;;;;;;;11.11;57.05;99239.13;10433469;28;20098;-59
2024/04/03 00:28:57;;;;;;;1.17;0.88;;;;;;;10.96;57.52;99232.38;10431909;28;20045;-59
2024/04/03 00:33:58;;;;;;;3.05;0.90;;;;;;;10.86;57.77;99236.59;10432801;28;20049;-59
2024/04/03 00:38:59;;;;;;;1.40;0.75;;;;;;;10.75;58.05;99225.22;10432898;28;20539;-60
2024/04/03 00:44:00;;;;;;;0.63;0.60;;;;;;;10.58;58.72;99218.59;10432823;28;20128;-59
2024/04/03 00:49:02;;;;;;;1.02;0.70;;;;;;;10.59;59.08;99217.66;10432152;28;20049;-59
2024/04/03 00:54:03;;;;;;;2.22;1.05;;;;;;;10.52;59.26;99216.44;10416099;28;20493;-59
2024/04/03 00:59:04;;;;;;;3.03;0.98;;;;;;;10.52;59.59;99216.44;10431687;28;20567;-59
2024/04/03 01:04:05;;;;;;;1.85;1.00;;;;;;;10.67;59.84;99206.63;10430479;28;20045;-59
2024/04/03 01:09:06;;;;;;;1.80;0.50;;;;;;;10.72;59.97;99208.00;10432451;28;20041;-59
2024/04/03 01:14:07;;;;;;;1.48;0.75;;;;;;;10.75;60.23;99205.16;10431163;28;20519;-60
2024/04/03 01:19:08;;;;;;;2.05;1.10;;;;;;;10.77;60.27;99192.78;10414156;28;20041;-59
2024/04/03 01:24:09;;;;;;;2.70;0.80;;;;;;;10.76;60.29;99191.13;10415724;28;20064;-59
2024/04/03 01:29:10;;;;;;;4.68;2.20;;;;;;;10.74;60.59;99185.19;10413928;28;20043;-60
2024/04/03 01:34:11;;;;;;;3.00;1.10;;;;;;;10.72;60.76;99181.84;10431345;28;20041;-59
2024/04/03 01:39:12;;;;;;;1.77;0.80;;;;;;;10.35;61.43;99180.16;10431026;28;20505;-59
2024/04/03 01:44:13;;;;;;;7.22;1.10;;;;;;;10.13;61.96;99169.56;10414117;28;20581;-59
2024/04/03 01:49:14;;;;;;;4.32;1.27;;;;;;;10.19;61.91;99162.13;10430098;28;20053;-59
2024/04/03 01:54:15;;;;;;;6.50;1.10;;;;;;;10.36;61.83;99147.84;10395109;28;20037;-59
2024/04/03 01:59:16;;;;;;;2.90;0.70;;;;;;;10.43;61.86;99149.09;10431245;28;20061;-59
2024/04/03 02:04:17;;;;;;;8.98;1.55;;;;;;;10.45;61.79;99147.22;10430509;28;20067;-60
2024/04/03 02:09:18;;;;;;;2.70;1.20;;;;;;;10.37;62.15;99147.75;10430608;28;20045;-60
2024/04/03 02:14:20;;;;;;;1.20;1.08;;;;;;;10.43;62.14;99149.09;10431209;28;20075;-59
2024/04/03 02:19:21;;;;;;;2.92;0.90;;;;;;;10.43;62.25;99149.94;10430440;28;20044;-60
2024/04/03 02:24:22;;;;;;;1.38;0.90;;;;;;;10.44;62.10;99140.28;10414039;28;20037;-59
2024/04/03 02:29:23;;;;;;;1.77;0.80;;;;;;;10.32;62.23;99128.09;10434755;28;20068;-59
2024/04/03 02:34:24;;;;;;;1.95;0.95;;;;;;;10.35;62.36;99130.50;10437647;28;20037;-59
2024/04/03 02:39:25;;;;;;;2.35;0.82;;;;;;;10.30;62.64;99122.16;10436698;28;20045;-59
2024/04/03 02:44:26;;;;;;;2.92;0.80;;;;;;;10.13;62.81;99112.09;10437885;28;20053;-60
2024/04/03 02:49:27;;;;;;;2.42;1.38;;;;;;;9.85;63.52;99101.91;10438076;28;20049;-59
2024/04/03 02:54:28;;;;;;;1.70;1.00;;;;;;;9.72;63.80;99103.69;10436839;28;20050;-59
2024/04/03 02:59:29;;;;;;;0.95;0.57;;;;;;;9.85;63.78;99094.88;10402638;28;20059;-59
2024/04/03 03:04:41;;;;;;;5.40;1.60;;;;;;;9.97;63.86;99095.81;10436342;28;20070;-59
2024/04/03 03:09:41;;;;;;;14.18;1.65;;;;;;;9.98;63.64;99098.31;10437444;28;20102;-59
2024/04/03 03:14:42;;;;;;;4.65;1.50;;;;;;;10.06;63.58;99097.75;10437223;28;20397;-60
2024/04/03 03:19:44;;;;;;;3.65;1.10;;;;;;;10.11;63.41;99080.00;10436061;28;20048;-59
2024/04/03 03:24:46;;;;;;;4.38;1.40;;;;;;;10.11;63.46;99074.78;10404371;28;20049;-60
2024/04/03 03:29:47;;;;;;;2.42;0.80;;;;;;;9.97;63.56;99070.50;10395236;28;20056;-60
2024/04/03 03:34:48;;;;;;;2.13;1.08;;;;;;;10.01;63.62;99068.53;10435525;28;20060;-59
2024/04/03 03:39:49;;;;;;;2.15;1.33;;;;;;;10.04;63.45;99068.31;10417915;28;20071;-59
2024/04/03 03:44:50;;;;;;;5.95;2.40;;;;;;;9.98;63.69;99056.53;10419131;28;20049;-59
2024/04/03 03:55:11;;;;;;;3.30;1.30;;;;;;;9.74;63.96;99044.34;10434907;28;20048;-59
2024/04/03 04:00:13;;;;;;;2.72;1.13;;;;;;;9.71;64.31;99050.63;10435996;28;20475;-59
2024/04/03 04:05:14;;;;;;;2.35;1.63;;;;;;;9.58;64.49;99039.34;10451589;28;20056;-59
2024/04/03 04:10:15;;;;;;;1.20;0.90;;;;;;;9.42;64.88;99036.16;10419538;28;20115;-59
2024/04/03 04:15:16;;;;;;;3.20;1.05;;;;;;;9.41;65.05;99030.09;10432474;28;20065;-59
2024/04/03 04:20:17;;;;;;;1.98;0.73;;;;;;;9.47;64.74;99024.44;10418235;28;20055;-59
2024/04/03 04:25:18;;;;;;;2.78;0.90;;;;;;;9.59;64.91;99015.75;10418060;28;20583;-59
2024/04/03 04:30:19;;;;;;;4.43;1.17;;;;;;;9.70;64.60;99015.03;10433113;28;20086;-59
2024/04/03 04:35:20;;;;;;;5.47;1.33;;;;;;;9.77;64.43;99013.63;10417497;28;20045;-60
2024/04/03 04:40:21;;;;;;;3.72;1.45;;;;;;;9.79;64.46;99016.97;10433788;28;20056;-60
2024/04/03 04:45:22;;;;;;;4.28;1.40;;;;;;;9.77;64.34;99008.41;10433612;28;20729;-59
2024/04/03 04:50:23;;;;;;;9.68;1.77;;;;;;;9.76;64.48;99000.69;10432940;28;20045;-59
2024/04/03 04:55:24;;;;;;;4.35;1.67;;;;;;;9.79;64.42;98996.09;10432233;28;20041;-59
2024/04/03 05:00:25;;;;;;;10.75;1.90;;;;;;;9.77;64.54;98991.94;10433546;28;20052;-59
2024/04/03 05:05:31;;;;;;;1.55;1.10;;;;;;;9.78;64.61;99015.31;10448838;28;20048;-59
2024/04/03 05:10:35;;;;;;;3.88;1.83;;;;;;;9.80;64.51;99000.38;10416340;28;20393;-59
2024/04/03 05:15:36;;;;;;;3.33;1.80;;;;;;;9.84;64.50;99019.28;10413880;28;20460;-59
2024/04/03 05:20:37;;;;;;;4.32;1.50;;;;;;;9.58;65.09;99011.44;10431111;28;20090;-59
2024/04/03 05:25:38;;;;;;;3.83;2.03;;;;;;;9.56;65.04;99015.13;10431678;28;20041;-59
2024/04/03 05:30:39;;;;;;;1.25;1.15;;;;;;;9.69;65.05;99017.75;10398687;28;20037;-59
2024/04/03 05:35:40;;;;;;;1.52;0.98;;;;;;;9.81;64.67;99016.88;10414182;28;20063;-59
2024/04/03 05:40:41;;;;;;;4.43;1.42;;;;;;;9.82;64.65;99027.22;10414898;28;20516;-59
2024/04/03 05:45:42;;;;;;;2.50;1.13;;;;;;;9.84;64.73;99040.16;10431164;28;20038;-59
2024/04/03 05:50:43;;;;;;;2.45;1.00;;;;;;;9.98;64.52;99032.16;10431577;28;20044;-59
2024/04/03 05:55:53;;;;;;;1.80;1.20;;;;;;;9.97;65.02;99035.75;10430363;28;20049;-60
2024/04/03 06:00:55;;;;;;;1.92;1.30;;;;;;;10.10;64.42;99034.75;10431086;28;20044;-59
2024/04/03 06:05:58;;;;;;;1.50;0.90;;;;;;;10.12;64.56;99035.47;10419763;28;20414;-60
2024/04/03 06:10:59;;;;;;;3.28;1.58;;;;;;;10.23;64.64;99034.69;10405445;28;20459;-59
2024/04/03 06:16:00;;;;;;;1.23;1.13;;;;;;;10.32;64.35;99042.69;10438348;28;20126;-60
2024/04/03 06:21:11;;;;;;;1.08;0.70;;;;;;;10.40;64.58;99045.59;10422717;28;20080;-60
2024/04/03 06:26:13;;;;;;;1.75;1.08;;;;;;;10.50;64.16;99051.81;10438863;28;20036;-62
2024/04/03 06:31:14;;;;;;;1.52;0.90;;;;;;;10.58;63.95;99040.81;10422056;28;20118;-61
2024/04/03 06:36:15;;;;;;;1.48;0.90;;;;;;;10.51;63.78;99036.97;10438122;28;20067;-62
2024/04/03 06:41:16;;;;;;;1.33;0.90;;;;;;;10.58;63.81;99035.59;10438804;28;20076;-61
2024/04/03 06:46:17;;;;;;;1.33;1.02;;;;;;;10.67;63.90;99037.50;10438825;28;20045;-62
2024/04/03 06:51:18;;;;;;;3.30;2.10;;;;;;;10.81;63.69;99034.69;10437827;28;20041;-59
2024/04/03 06:56:19;;;;;;;2.08;1.10;;;;;;;10.91;63.59;99025.19;10437045;28;20067;-59
2024/04/03 07:01:20;;;;;;;2.40;1.10;;;;;;;10.97;63.49;99021.31;10438143;28;20052;-59
2024/04/03 07:06:21;;;;;;;2.03;1.30;;;;;;;11.06;63.26;99012.78;10404650;28;20517;-59
2024/04/03 07:11:22;;;;;;;4.10;1.60;;;;;;;11.24;63.18;99014.00;10438423;28;20072;-59
2024/04/03 07:16:24;;;;;;;2.35;0.90;;;;;;;11.29;63.31;99015.28;10446423;28;20532;-60
2024/04/03 07:21:25;;;;;;;1.52;0.95;;;;;;;11.41;63.13;99012.69;10430595;28;20063;-60
2024/04/03 07:26:26;;;;;;;2.90;1.20;;;;;;;11.60;63.09;99013.75;10430578;28;20088;-60
2024/04/03 07:31:27;;;;;;;1.90;1.10;;;;;;;11.79;62.96;99016.59;10431072;28;20090;-60
2024/04/03 07:36:28;;;;;;;2.10;1.00;;;;;;;12.04;62.82;99012.84;10413046;28;20526;-61
2024/04/03 07:41:32;;;;;;;1.80;1.00;;;;;;;11.89;62.91;99014.91;10399905;28;20471;-61
2024/04/03 07:46:33;;;;;;;0.68;0.68;;;;;;;11.98;62.18;99013.34;10430441;28;20048;-61
2024/04/03 07:51:34;;;;;;;2.25;1.20;;;;;;;12.17;62.42;99015.34;10431299;28;20052;-60
2024/04/03 07:56:35;;;;;;;2.67;0.80;;;;;;;12.20;62.10;99012.44;10414508;28;20044;-61
2024/04/03 08:01:35;;;;;;;4.47;1.55;;;;;;;12.31;61.29;99015.91;10430951;28;20063;-60
2024/04/03 08:06:36;;;;;;;2.78;0.85;;;;;;;12.25;61.32;99016.38;10414722;28;20389;-61
2024/04/03 08:11:37;;;;;;;2.05;1.00;;;;;;;12.12;61.30;99016.53;10397481;28;20064;-61
2024/04/03 08:16:39;;;;;;;1.63;0.88;;;;;;;12.31;60.86;99005.44;10413471;28;20283;-60
2024/04/03 08:21:41;;;;;;;0.40;0.40;;;;;;;12.50;60.29;98999.47;10430578;28;20148;-60
2024/04/03 08:26:42;;;;;;;3.22;0.77;;;;;;;12.52;60.05;99001.03;10461694;28;20041;-60
2024/04/03 08:31:43;;;;;;;0.73;0.70;;;;;;;12.51;59.46;98994.13;10413078;28;20059;-60
2024/04/03 08:36:44;;;;;;;0.63;0.60;;;;;;;12.48;59.29;98990.91;10429483;28;20056;-60
2024/04/03 08:41:47;;;;;;;0.70;0.60;;;;;;;12.69;58.65;99000.47;10427443;28;20044;-60
2024/04/03 08:46:49;;;;;;;0.30;0.30;;;;;;;12.67;58.73;98997.16;10426612;28;20045;-60
2024/04/03 08:52:02;;;;;;;2.25;0.60;;;;;;;12.57;57.58;98992.78;10410100;28;20045;-60
2024/04/03 08:57:05;;;;;;;0.30;0.30;;;;;;;12.81;57.76;98994.22;10425980;28;20052;-60
2024/04/03 09:02:07;;;;;;;1.08;0.60;;;;;;;13.18;57.02;98985.84;10426053;28;20604;-61
2024/04/03 09:07:18;;;;;;;1.23;0.60;;;;;;;13.20;55.07;98983.94;10425454;28;20378;-60
2024/04/03 09:12:24;;;;;;;3.05;1.02;;;;;;;12.95;55.47;98996.50;10424634;28;20079;-61
2024/04/03 09:17:25;;;;;;;1.17;0.80;;;;;;;12.74;56.57;98976.50;10423629;28;20138;-60
2024/04/03 09:22:27;;;;;;;0.60;0.60;;;;;;;12.70;56.64;98980.34;10423614;28;20212;-60
2024/04/03 09:27:28;;;;;;;2.13;0.63;;;;;;;12.64;56.69;98976.41;10454585;28;20037;-60
2024/04/03 09:32:29;;;;;;;2.95;1.80;;;;;;;12.85;56.51;98982.50;10407167;28;20417;-60
2024/04/03 09:37:32;;;;;;;0.50;0.50;;;;;;;13.02;56.08;98977.63;10427158;28;20087;-60
2024/04/03 09:42:35;;;;;;;0.68;0.57;;;;;;;13.19;55.58;98972.59;10427671;28;20041;-60
2024/04/03 09:47:37;;;;;;;0.70;0.70;;;;;;;12.74;55.94;98974.69;10460172;28;20487;-60
2024/04/03 09:52:40;;;;;;;1.45;0.75;;;;;;;12.52;55.94;98969.56;10426244;28;20037;-60
2024/04/03 09:57:41;;;;;;;0.98;0.60;;;;;;;12.31;56.31;98971.34;10426546;28;20136;-61
2024/04/03 10:02:48;;;;;;;4.90;1.85;;;;;;;12.34;55.96;98965.84;10427029;28;20052;-60
2024/04/03 10:08:10;;;;;;;0.75;0.70;;;;;;;12.45;55.86;98964.97;10426493;28;20041;-60
2024/04/03 10:13:35;;;;;;;1.67;0.70;;;;;;;12.61;55.13;98965.34;10426323;28;20061;-60
2024/04/03 10:18:40;;;;;;;2.15;0.70;;;;;;;12.71;55.00;98958.38;10415474;28;20053;-60
2024/04/03 10:23:51;;;;;;;0.60;0.50;;;;;;;13.20;54.01;98953.25;10426687;28;20494;-60
2024/04/03 10:28:52;;;;;;;3.28;0.68;;;;;;;13.19;53.63;98943.69;10420295;28;20049;-60
2024/04/03 10:33:53;;;;;;;0.70;0.60;;;;;;;13.23;54.62;98955.59;10407074;28;20539;-59
2024/04/03 10:38:54;;;;;;;0.95;0.50;;;;;;;13.07;54.71;98951.81;10406682;28;20505;-60
2024/04/03 10:43:58;;;;;;;0.75;0.65;;;;;;;12.88;54.08;98948.09;10419108;28;20029;-60
2024/04/03 10:49:00;;;;;;;0.85;0.52;;;;;;;12.98;54.39;98942.09;10407737;28;20078;-60
2024/04/03 10:54:01;;;;;;;1.02;0.85;;;;;;;13.10;54.14;98941.03;10431863;28;20191;-59
2024/04/03 10:59:04;;;;;;;0.52;0.52;;;;;;;13.29;53.28;98939.31;10427371;28;20424;-60
2024/04/03 11:04:07;;;;;;;0.93;0.70;;;;;;;13.35;53.27;98937.97;10427847;28;20040;-60
2024/04/03 11:09:09;;;;;;;0.50;0.50;;;;;;;13.23;53.11;98941.66;10427525;28;20159;-60
2024/04/03 11:14:11;;;;;;;0.50;0.50;;;;;;;12.94;53.12;98942.34;10417618;28;20630;-60
2024/04/03 11:19:12;;;;;;;0.40;0.40;;;;;;;13.02;53.28;98948.75;10432957;28;20409;-61
2024/04/03 11:24:13;;;;;;;0.60;0.60;;;;;;;13.30;52.69;98941.00;10432425;28;20041;-61
2024/04/03 11:29:27;;;;;;;1.77;0.47;;;;;;;13.70;52.11;98941.00;10432256;28;20064;-61
2024/04/03 11:34:29;;;;;;;0.77;0.57;;;;;;;14.00;52.20;98938.31;10431388;28;20049;-61
2024/04/03 11:39:31;;;;;;;1.25;0.50;;;;;;;14.44;52.11;98939.53;10415034;28;20052;-61
2024/04/03 11:44:32;;;;;;;0.30;0.30;;;;;;;14.62;52.09;98942.31;10430823;28;20063;-61
2024/04/03 11:49:33;;;;;;;0.30;0.30;;;;;;;14.30;52.48;98945.22;10415201;28;20094;-61
2024/04/03 11:54:34;;;;;;;3.85;0.55;;;;;;;13.98;53.00;98953.38;10430007;28;20045;-61
2024/04/03 11:59:38;;;;;;;2.78;1.15;;;;;;;13.84;54.08;98952.94;10425944;28;20721;-61
2024/04/03 12:04:39;;;;;;;1.23;0.60;;;;;;;14.27;53.54;98950.75;10426018;28;20126;-61
2024/04/03 12:09:44;;;;;;;3.35;0.85;;;;;;;14.61;53.36;98945.94;10407174;28;20048;-61
2024/04/03 12:14:45;;;;;;;0.40;0.40;;;;;;;14.43;53.41;98948.41;10424496;28;20411;-59
2024/04/03 12:19:52;;;;;;;2.20;0.80;;;;;;;14.16;54.43;98957.00;10427502;28;20299;-60
2024/04/03 12:24:54;;;;;;;0.65;0.50;;;;;;;14.09;54.65;98955.03;10404056;28;20044;-61
2024/04/03 12:29:55;;;;;;;1.35;0.50;;;;;;;14.34;54.96;98946.59;10422464;28;20040;-61
2024/04/03 12:34:56;;;;;;;0.60;0.60;;;;;;;14.27;54.50;98953.38;10407517;28;20370;-61
2024/04/03 12:39:57;;;;;;;0.55;0.55;;;;;;;14.32;54.85;98957.28;10425779;28;20581;-61
2024/04/03 12:45:00;;;;;;;0.35;0.32;;;;;;;14.16;54.68;98954.38;10424988;28;20731;-61
2024/04/03 12:50:00;;;;;;;0.73;0.52;;;;;;;13.99;55.34;98952.41;10411935;28;20037;-61
2024/04/03 12:55:02;;;;;;;0.88;0.70;;;;;;;13.77;55.76;98952.66;10432136;28;20036;-61
2024/04/03 13:00:05;;;;;;;0.47;0.40;;;;;;;13.83;55.98;98957.34;10415673;28;20090;-60
2024/04/03 13:05:06;;;;;;;0.28;0.28;;;;;;;13.89;56.11;98962.06;10399784;28;20049;-61
2024/04/03 13:10:07;;;;;;;0.60;0.50;;;;;;;14.16;56.07;98956.16;10431580;28;20056;-60
2024/04/03 13:15:08;;;;;;;0.28;0.28;;;;;;;14.30;56.22;98951.31;10432206;28;20489;-61
2024/04/03 13:20:09;;;;;;;0.38;0.38;;;;;;;14.26;56.41;98957.00;10432176;28;20041;-61
2024/04/03 13:25:10;;;;;;;0.63;0.50;;;;;;;14.26;56.42;98962.25;10431455;28;20052;-61
2024/04/03 13:30:12;;;;;;;0.70;0.40;;;;;;;14.41;56.48;98953.78;10415878;28;20049;-61
2024/04/03 13:35:14;;;;;;;0.68;0.50;;;;;;;14.38;56.23;98947.97;10431477;28;20048;-61
2024/04/03 13:40:16;;;;;;;0.65;0.50;;;;;;;14.24;56.43;98951.88;10430990;28;20145;-61
2024/04/03 13:45:17;;;;;;;0.47;0.40;;;;;;;14.32;56.11;98952.00;10430968;28;20454;-61
2024/04/03 13:50:18;;;;;;;0.50;0.50;;;;;;;14.15;56.30;98951.84;10429571;28;20045;-61
2024/04/03 13:55:18;;;;;;;0.75;0.40;;;;;;;13.85;56.66;98949.31;10431835;28;20056;-61
2024/04/03 14:00:22;;;;;;;0.50;0.50;;;;;;;13.71;57.15;98953.19;10430308;28;20049;-61
2024/04/03 14:05:24;;;;;;;0.68;0.55;;;;;;;13.54;57.27;98961.69;10430654;28;20053;-61
2024/04/03 14:10:25;;;;;;;0.90;0.60;;;;;;;13.73;57.33;98957.34;10431151;28;20045;-61
2024/04/03 14:15:26;;;;;;;1.35;0.70;;;;;;;13.94;56.93;98953.78;10431063;28;20061;-61
2024/04/03 14:20:28;;;;;;;0.40;0.40;;;;;;;13.95;56.86;98955.44;10430256;28;20053;-61
2024/04/03 14:25:29;;;;;;;0.98;0.60;;;;;;;13.91;56.69;98948.78;10435143;28;20547;-61
2024/04/03 14:30:30;;;;;;;0.82;0.52;;;;;;;13.97;56.78;98967.47;10438873;28;20037;-61
2024/04/03 14:35:31;;;;;;;2.67;0.73;;;;;;;13.96;57.12;98962.38;10421684;28;20473;-61
2024/04/03 14:40:32;;;;;;;0.50;0.50;;;;;;;14.00;57.34;98958.50;10438583;28;20176;-61
2024/04/03 14:45:36;;;;;;;0.63;0.63;;;;;;;14.07;57.34;98965.69;10437762;28;20575;-60
2024/04/03 14:50:40;;;;;;;1.17;0.82;;;;;;;14.03;57.08;98966.94;10437748;28;20049;-60
2024/04/03 14:55:44;;;;;;;0.65;0.60;;;;;;;13.93;57.22;98965.25;10421342;28;20300;-60
2024/04/03 15:00:45;;;;;;;1.42;0.80;;;;;;;14.07;56.84;98960.44;10419759;28;20749;-61
2024/04/03 15:05:48;;;;;;;0.82;0.52;;;;;;;14.00;56.91;98958.50;10420119;28;20072;-60
2024/04/03 15:10:50;;;;;;;0.50;0.50;;;;;;;13.98;57.02;98974.41;10436787;28;20051;-60
2024/04/03 15:15:51;;;;;;;0.55;0.52;;;;;;;13.81;57.05;98969.81;10434636;28;20528;-61
2024/04/03 15:20:53;;;;;;;1.02;0.65;;;;;;;13.78;57.29;98964.81;10431864;28;20056;-60
2024/04/03 15:25:54;;;;;;;1.80;0.68;;;;;;;13.85;56.70;98965.94;10434346;28;20037;-60
2024/04/03 15:30:55;;;;;;;4.55;1.10;;;;;;;14.16;56.41;98958.78;10419281;28;20041;-59
2024/04/03 15:35:56;;;;;;;1.70;1.10;;;;;;;14.10;56.20;98957.53;10435796;28;20064;-59
2024/04/03 15:40:57;;;;;;;0.80;0.77;;;;;;;14.18;56.29;98967.38;10435686;28;20045;-60
2024/04/03 15:46:01;;;;;;;1.73;1.10;;;;;;;14.19;56.18;98974.28;10433471;28;20046;-60
2024/04/03 15:51:03;;;;;;;0.70;0.70;;;;;;;14.25;56.18;98966.66;10418286;28;20033;-59
2024/04/03 15:56:04;;;;;;;0.82;0.60;;;;;;;14.33;55.94;98960.75;10465532;28;20069;-60
2024/04/03 16:01:05;;;;;;;0.60;0.60;;;;;;;14.33;55.86;98956.28;10429247;28;20040;-60
2024/04/03 16:06:06;;;;;;;0.70;0.70;;;;;;;14.29;56.03;98956.69;10432334;28;20443;-60
2024/04/03 16:11:07;;;;;;;0.90;0.80;;;;;;;14.32;56.32;98957.28;10428947;28;20052;-59
2024/04/03 16:16:08;;;;;;;0.70;0.70;;;;;;;14.39;55.85;98968.06;10414955;28;20065;-60
2024/04/03 16:21:13;;;;;;;0.98;0.68;;;;;;;14.40;55.97;98973.19;10412213;28;20136;-60
2024/04/03 16:26:14;;;;;;;0.98;0.80;;;;;;;14.37;55.92;98970.81;10429683;28;20036;-60
2024/04/03 16:31:16;;;;;;;0.95;0.60;;;;;;;14.35;56.21;98985.09;10423520;28;20102;-60
2024/04/03 16:36:18;;;;;;;0.93;0.57;;;;;;;14.34;56.47;98980.78;10429009;28;20065;-60
2024/04/03 16:41:19;;;;;;;0.45;0.45;;;;;;;14.35;56.17;98982.47;10424637;28;20052;-60
2024/04/03 16:46:20;;;;;;;0.70;0.50;;;;;;;14.36;56.00;98979.69;10423638;28;20041;-60
2024/04/03 16:51:21;;;;;;;0.73;0.60;;;;;;;14.35;56.14;98974.59;10432592;28;20037;-60
2024/04/03 16:56:22;;;;;;;0.82;0.70;;;;;;;14.18;56.42;98976.09;10398815;28;20099;-60
2024/04/03 17:01:23;;;;;;;1.50;1.10;;;;;;;13.91;56.50;98980.31;10433182;28;20059;-60
2024/04/03 17:06:24;;;;;;;0.75;0.75;;;;;;;13.56;57.19;98986.88;10432792;28;20071;-60
2024/04/03 17:11:25;;;;;;;0.90;0.80;;;;;;;13.56;57.28;98988.66;10432195;28;20033;-60
2024/04/03 17:16:26;;;;;;;0.80;0.70;;;;;;;13.68;57.15;98985.81;10431917;28;20426;-60
2024/04/03 17:21:27;;;;;;;0.68;0.63;;;;;;;13.53;57.04;98992.41;10415410;28;20527;-60
2024/04/03 17:26:28;;;;;;;3.88;1.70;;;;;;;13.30;57.45;98995.31;10431824;28;20048;-61
2024/04/03 17:31:30;;;;;;;1.10;0.90;;;;;;;13.17;57.74;98999.97;10431232;28;20095;-60
2024/04/03 17:36:31;;;;;;;3.47;1.73;;;;;;;13.21;57.98;99003.97;10429485;28;20045;-60
2024/04/03 17:41:32;;;;;;;2.95;1.38;;;;;;;13.06;58.09;99005.28;10414383;28;20036;-59
2024/04/03 17:46:33;;;;;;;1.05;0.60;;;;;;;12.91;58.31;99010.00;10407938;28;20130;-60
2024/04/03 17:51:34;;;;;;;1.40;0.93;;;;;;;12.83;58.45;99020.31;10426914;28;20052;-59
2024/04/03 17:56:35;;;;;;;1.50;0.80;;;;;;;12.63;58.88;99021.13;10425775;28;20202;-60
2024/04/03 18:01:36;;;;;;;1.75;0.90;;;;;;;12.77;58.51;99019.03;10424656;28;20090;-60
2024/04/03 18:06:37;;;;;;;2.20;1.10;;;;;;;12.85;58.38;99021.84;10408901;28;20041;-59
2024/04/03 18:11:39;;;;;;;1.40;0.77;;;;;;;12.81;58.38;99023.06;10424961;28;20037;-60
2024/04/03 18:16:40;;;;;;;1.48;0.90;;;;;;;12.62;58.69;99041.28;10461751;28;20148;-60
2024/04/03 18:21:41;;;;;;;0.90;0.75;;;;;;;12.59;58.92;99044.19;10424845;28;20045;-60
2024/04/03 18:26:42;;;;;;;0.88;0.70;;;;;;;12.62;59.06;99057.03;10411889;28;20041;-60
2024/04/03 18:31:45;;;;;;;0.55;0.55;;;;;;;12.76;58.72;99056.72;10425521;28;20114;-59
2024/04/03 18:36:46;;;;;;;0.57;0.57;;;;;;;12.87;58.86;99067.19;10424859;28;20053;-60
2024/04/03 18:41:47;;;;;;;0.93;0.60;;;;;;;12.83;59.23;99064.94;10406969;28;20045;-60
2024/04/03 18:46:48;;;;;;;1.58;0.80;;;;;;;12.72;59.70;99075.50;10420646;28;20376;-60
2024/04/03 18:51:50;;;;;;;2.35;0.70;;;;;;;12.73;60.43;99079.75;10427313;28;20049;-59
2024/04/03 18:56:51;;;;;;;0.65;0.52;;;;;;;12.65;60.82;99087.44;10425913;28;20049;-60
2024/04/03 19:01:52;;;;;;;1.17;0.70;;;;;;;12.59;61.15;99083.53;10424354;28;20099;-59
2024/04/03 19:06:53;;;;;;;5.22;2.25;;;;;;;12.60;61.42;99094.84;10405070;28;20347;-60
2024/04/03 19:11:54;;;;;;;2.70;1.42;;;;;;;12.59;61.89;99091.38;10429814;28;20037;-63
2024/04/03 19:16:58;;;;;;;0.80;0.80;;;;;;;12.66;62.11;99089.09;10436568;28;20419;-64
2024/04/03 19:22:03;;;;;;;1.13;0.90;;;;;;;12.66;62.54;99099.59;10420860;28;20495;-64
2024/04/03 19:27:04;;;;;;;1.15;0.82;;;;;;;12.52;62.59;99103.31;10436993;28;20045;-64
2024/04/03 19:32:05;;;;;;;2.97;1.40;;;;;;;12.44;63.07;99100.47;10436682;28;20041;-64
2024/04/03 19:37:06;;;;;;;2.38;1.23;;;;;;;12.39;63.32;99107.91;10418783;28;20825;-64
2024/04/03 19:42:09;;;;;;;1.17;0.80;;;;;;;12.43;63.54;99090.97;10419487;28;20155;-64
2024/04/03 19:47:10;;;;;;;1.48;0.60;;;;;;;12.17;63.91;99092.19;10433389;28;20056;-64
2024/04/03 19:52:11;;;;;;;1.85;0.70;;;;;;;12.02;65.02;99096.84;10418991;28;20049;-64
2024/04/03 19:57:14;;;;;;;1.40;0.63;;;;;;;12.14;64.89;99108.16;10434134;28;20489;-64
2024/04/03 20:02:16;;;;;;;2.88;1.40;;;;;;;12.28;64.73;99113.16;10417876;28;20052;-64
2024/04/03 20:07:19;;;;;;;1.02;0.93;;;;;;;12.36;64.62;99126.47;10418014;28;20455;-64
2024/04/03 20:12:23;;;;;;;1.20;1.10;;;;;;;12.27;65.06;99114.09;10417078;28;20049;-64
2024/04/03 20:17:24;;;;;;;2.95;1.60;;;;;;;12.08;65.68;99130.44;10433970;28;20060;-64
2024/04/03 20:22:25;;;;;;;1.52;1.10;;;;;;;12.19;65.42;99123.50;10416412;28;20440;-64
2024/04/03 20:27:27;;;;;;;0.82;0.60;;;;;;;12.10;65.89;99135.56;10434088;28;20394;-64
2024/04/03 20:32:30;;;;;;;1.42;0.77;;;;;;;12.03;66.22;99142.22;10433090;28;20477;-64
2024/04/03 20:37:31;;;;;;;2.40;1.30;;;;;;;11.90;66.73;99152.00;10432434;28;20390;-64
2024/04/03 20:42:33;;;;;;;2.25;1.42;;;;;;;11.88;66.92;99153.91;10429775;28;20049;-64
2024/04/03 20:47:35;;;;;;;4.85;0.88;;;;;;;11.80;67.76;99159.75;10398632;28;20398;-64
2024/04/03 20:52:36;;;;;;;1.52;1.00;;;;;;;11.83;67.36;99162.09;10414625;28;20033;-64
2024/04/03 20:57:52;;;;;;;0.65;0.65;;;;;;;11.89;67.29;99171.28;10413434;28;20409;-65
2024/04/03 21:02:53;;;;;;;1.60;0.85;;;;;;;11.83;67.90;99166.50;10449651;28;20398;-64
2024/04/03 21:07:54;;;;;;;3.22;1.98;;;;;;;11.72;68.14;99188.28;10432140;28;20029;-64
2024/04/03 21:12:55;;;;;;;0.93;0.70;;;;;;;11.71;68.69;99201.50;10429651;28;20131;-64
2024/04/03 21:17:58;;;;;;;2.10;1.10;;;;;;;11.95;67.67;99204.88;10431173;28;20445;-64
2024/04/03 21:22:59;;;;;;;1.13;0.70;;;;;;;11.95;67.07;99217.97;10414525;28;20569;-64
2024/04/03 21:28:00;;;;;;;1.95;1.00;;;;;;;11.84;66.96;99216.19;10408433;28;20037;-64
2024/04/03 21:33:03;;;;;;;0.63;0.63;;;;;;;11.69;67.45;99226.97;10413261;28;20474;-64
2024/04/03 21:38:04;;;;;;;0.93;0.70;;;;;;;11.52;67.63;99238.72;10414664;28;20045;-64
2024/04/03 21:43:05;;;;;;;1.60;0.70;;;;;;;11.70;67.05;99249.63;10413723;28;20425;-64
2024/04/03 21:48:06;;;;;;;1.60;0.70;;;;;;;11.60;66.66;99248.63;10463219;28;20049;-64
2024/04/03 21:53:09;;;;;;;0.73;0.63;;;;;;;11.56;66.63;99268.16;10416093;28;20049;-64
2024/04/03 21:58:11;;;;;;;0.77;0.77;;;;;;;11.45;66.41;99266.31;10397571;28;20080;-64
2024/04/03 22:03:12;;;;;;;4.07;1.00;;;;;;;11.42;65.98;99277.00;10413399;28;20212;-64
2024/04/03 22:08:13;;;;;;;1.85;0.90;;;;;;;11.28;65.90;99280.63;10430638;28;20589;-64
2024/04/03 22:13:14;;;;;;;3.42;0.93;;;;;;;11.16;65.96;99286.75;10429808;28;20053;-64
2024/04/03 22:18:15;;;;;;;1.33;0.85;;;;;;;11.06;66.00;99288.38;10430104;28;20045;-63
2024/04/03 22:23:16;;;;;;;1.65;0.90;;;;;;;10.93;65.95;99295.38;10398010;28;20043;-64
2024/04/03 22:28:17;;;;;;;0.70;0.70;;;;;;;10.85;65.75;99307.31;10429841;28;20061;-64
2024/04/03 22:33:18;;;;;;;0.68;0.68;;;;;;;10.72;65.61;99317.84;10409836;28;20040;-64
2024/04/03 22:38:20;;;;;;;1.52;1.10;;;;;;;10.66;65.26;99312.19;10429852;28;20037;-63
2024/04/03 22:43:21;;;;;;;0.65;0.60;;;;;;;10.58;64.96;99310.13;10412296;28;20246;-64
2024/04/03 22:48:23;;;;;;;1.30;0.85;;;;;;;10.41;64.74;99310.44;10436815;28;20041;-64
2024/04/03 22:53:24;;;;;;;1.88;0.82;;;;;;;10.35;64.52;99321.31;10470917;28;20312;-65
2024/04/03 22:58:25;;;;;;;3.95;1.30;;;;;;;10.28;64.20;99327.88;10437415;28;20676;-64
2024/04/03 23:03:26;;;;;;;2.00;0.88;;;;;;;10.22;64.31;99336.97;10437174;28;20045;-65
2024/04/03 23:08:27;;;;;;;3.63;0.88;;;;;;;10.17;64.29;99348.69;10437158;28;20037;-64
2024/04/03 23:13:28;;;;;;;1.38;0.77;;;;;;;10.01;64.55;99354.09;10436586;28;20076;-63
2024/04/03 23:18:30;;;;;;;1.30;0.80;;;;;;;9.86;64.92;99367.34;10436261;28;20041;-64
2024/04/03 23:23:31;;;;;;;0.47;0.47;;;;;;;9.79;65.08;99371.31;10436831;28;20033;-64
2024/04/03 23:28:32;;;;;;;0.75;0.73;;;;;;;9.75;65.32;99380.28;10419709;28;20037;-64
2024/04/03 23:33:33;;;;;;;1.38;0.70;;;;;;;9.72;65.61;99383.91;10435917;28;20580;-63